sensor_id;sensor_type;location;lat;lon;timestamp;P1;durP1;ratioP1;P2;durP2;ratioP2
10934;SDS011;5520;45.752;4.874;2022-10-03T00:00:28;2.80;;;1.70;;
10934;SDS011;5520;45.752;4.874;2022-10-03T00:05:53;1.60;;;1.50;;
10934;SDS011;5520;45.752;4.874;2022-10-03T00:08:28;2.73;;;1.33;;
10934;SDS011;5520;45.752;4.874;2022-10-03T00:11:00;3.90;;;1.50;;
10934;SDS011;5520;45.752;4.874;2022-10-03T00:13:32;3.37;;;1.97;;
10934;SDS011;5520;45.752;4.874;2022-10-03T00:16:06;1.43;;;1.33;;
10934;SDS011;5520;45.752;4.874;2022-10-03T00:18:39;3.23;;;1.30;;
10934;SDS011;5520;45.752;4.874;2022-10-03T00:21:20;4.40;;;2.50;;
10934;SDS011;5520;45.752;4.874;2022-10-03T00:23:53;2.07;;;1.30;;
10934;SDS011;5520;45.752;4.874;2022-10-03T00:26:26;2.67;;;1.17;;
10934;SDS011;5520;45.752;4.874;2022-10-03T00:31:40;2.50;;;1.70;;
10934;SDS011;5520;45.752;4.874;2022-10-03T00:34:16;4.53;;;1.47;;
10934;SDS011;5520;45.752;4.874;2022-10-03T00:36:49;3.57;;;1.97;;
10934;SDS011;5520;45.752;4.874;2022-10-03T00:39:30;2.80;;;1.67;;
10934;SDS011;5520;45.752;4.874;2022-10-03T00:45:11;6.23;;;1.50;;
10934;SDS011;5520;45.752;4.874;2022-10-03T00:47:53;4.60;;;1.90;;
10934;SDS011;5520;45.752;4.874;2022-10-03T00:55:57;1.17;;;1.07;;
10934;SDS011;5520;45.752;4.874;2022-10-03T00:58:30;3.03;;;1.53;;
10934;SDS011;5520;45.752;4.874;2022-10-03T01:01:02;2.60;;;1.40;;
10934;SDS011;5520;45.752;4.874;2022-10-03T01:03:49;2.57;;;1.33;;
10934;SDS011;5520;45.752;4.874;2022-10-03T01:06:22;5.83;;;1.90;;
10934;SDS011;5520;45.752;4.874;2022-10-03T01:11:51;4.83;;;1.40;;
10934;SDS011;5520;45.752;4.874;2022-10-03T01:14:31;4.53;;;1.50;;
10934;SDS011;5520;45.752;4.874;2022-10-03T01:17:06;1.23;;;1.13;;
10934;SDS011;5520;45.752;4.874;2022-10-03T01:19:47;1.37;;;1.03;;
10934;SDS011;5520;45.752;4.874;2022-10-03T01:22:25;3.17;;;1.80;;
10934;SDS011;5520;45.752;4.874;2022-10-03T01:24:58;2.20;;;1.43;;
10934;SDS011;5520;45.752;4.874;2022-10-03T01:27:35;3.07;;;1.50;;
10934;SDS011;5520;45.752;4.874;2022-10-03T01:30:27;4.33;;;1.70;;
10934;SDS011;5520;45.752;4.874;2022-10-03T01:33:02;4.07;;;1.30;;
10934;SDS011;5520;45.752;4.874;2022-10-03T01:35:37;3.13;;;1.47;;
10934;SDS011;5520;45.752;4.874;2022-10-03T01:38:13;5.03;;;1.27;;
10934;SDS011;5520;45.752;4.874;2022-10-03T01:40:48;2.97;;;1.27;;
10934;SDS011;5520;45.752;4.874;2022-10-03T01:43:17;1.40;;;1.03;;
10934;SDS011;5520;45.752;4.874;2022-10-03T01:46:00;3.83;;;1.50;;
10934;SDS011;5520;45.752;4.874;2022-10-03T01:48:34;8.03;;;2.00;;
10934;SDS011;5520;45.752;4.874;2022-10-03T01:51:06;5.07;;;1.33;;
10934;SDS011;5520;45.752;4.874;2022-10-03T01:53:42;4.83;;;1.40;;
10934;SDS011;5520;45.752;4.874;2022-10-03T01:56:14;4.40;;;1.63;;
10934;SDS011;5520;45.752;4.874;2022-10-03T01:58:48;3.33;;;1.53;;
10934;SDS011;5520;45.752;4.874;2022-10-03T02:01:25;3.77;;;1.60;;
10934;SDS011;5520;45.752;4.874;2022-10-03T02:03:56;5.03;;;2.00;;
10934;SDS011;5520;45.752;4.874;2022-10-03T02:06:33;3.00;;;1.37;;
10934;SDS011;5520;45.752;4.874;2022-10-03T02:09:03;5.17;;;2.50;;
10934;SDS011;5520;45.752;4.874;2022-10-03T02:11:35;9.47;;;3.87;;
10934;SDS011;5520;45.752;4.874;2022-10-03T02:14:07;9.30;;;5.07;;
10934;SDS011;5520;45.752;4.874;2022-10-03T02:16:42;7.93;;;2.93;;
10934;SDS011;5520;45.752;4.874;2022-10-03T02:19:12;3.63;;;1.57;;
10934;SDS011;5520;45.752;4.874;2022-10-03T02:21:47;4.00;;;1.70;;
10934;SDS011;5520;45.752;4.874;2022-10-03T02:24:23;1.73;;;1.50;;
10934;SDS011;5520;45.752;4.874;2022-10-03T02:27:09;4.27;;;1.17;;
10934;SDS011;5520;45.752;4.874;2022-10-03T02:29:45;3.57;;;1.80;;
10934;SDS011;5520;45.752;4.874;2022-10-03T02:35:26;6.10;;;1.67;;
10934;SDS011;5520;45.752;4.874;2022-10-03T02:38:04;3.70;;;1.50;;
10934;SDS011;5520;45.752;4.874;2022-10-03T02:43:52;2.57;;;1.57;;
10934;SDS011;5520;45.752;4.874;2022-10-03T02:51:58;8.00;;;1.37;;
10934;SDS011;5520;45.752;4.874;2022-10-03T02:54:48;4.37;;;1.70;;
10934;SDS011;5520;45.752;4.874;2022-10-03T02:57:40;4.17;;;1.47;;
10934;SDS011;5520;45.752;4.874;2022-10-03T03:00:16;4.30;;;1.40;;
10934;SDS011;5520;45.752;4.874;2022-10-03T03:05:54;3.97;;;1.70;;
10934;SDS011;5520;45.752;4.874;2022-10-03T03:08:35;3.63;;;1.50;;
10934;SDS011;5520;45.752;4.874;2022-10-03T03:11:22;3.60;;;1.50;;
10934;SDS011;5520;45.752;4.874;2022-10-03T03:16:45;4.47;;;1.13;;
10934;SDS011;5520;45.752;4.874;2022-10-03T03:22:27;3.77;;;1.60;;
10934;SDS011;5520;45.752;4.874;2022-10-03T03:25:04;6.47;;;1.40;;
10934;SDS011;5520;45.752;4.874;2022-10-03T03:27:42;2.43;;;1.07;;
10934;SDS011;5520;45.752;4.874;2022-10-03T03:30:14;1.90;;;1.20;;
10934;SDS011;5520;45.752;4.874;2022-10-03T03:32:47;3.13;;;1.30;;
10934;SDS011;5520;45.752;4.874;2022-10-03T03:35:20;1.57;;;1.20;;
10934;SDS011;5520;45.752;4.874;2022-10-03T03:37:51;1.10;;;0.93;;
10934;SDS011;5520;45.752;4.874;2022-10-03T03:40:27;2.73;;;1.50;;
10934;SDS011;5520;45.752;4.874;2022-10-03T03:45:58;4.73;;;1.53;;
10934;SDS011;5520;45.752;4.874;2022-10-03T03:48:40;5.10;;;1.30;;
10934;SDS011;5520;45.752;4.874;2022-10-03T03:51:20;5.63;;;1.30;;
10934;SDS011;5520;45.752;4.874;2022-10-03T03:53:54;6.60;;;1.00;;
10934;SDS011;5520;45.752;4.874;2022-10-03T03:56:32;2.10;;;1.40;;
10934;SDS011;5520;45.752;4.874;2022-10-03T03:59:07;1.47;;;1.37;;
10934;SDS011;5520;45.752;4.874;2022-10-03T04:01:44;1.57;;;1.00;;
10934;SDS011;5520;45.752;4.874;2022-10-03T04:04:18;1.70;;;1.00;;
10934;SDS011;5520;45.752;4.874;2022-10-03T04:06:52;5.00;;;1.07;;
10934;SDS011;5520;45.752;4.874;2022-10-03T04:09:47;4.57;;;1.33;;
10934;SDS011;5520;45.752;4.874;2022-10-03T04:12:26;3.87;;;1.40;;
10934;SDS011;5520;45.752;4.874;2022-10-03T04:17:53;3.70;;;1.40;;
10934;SDS011;5520;45.752;4.874;2022-10-03T04:23:31;4.07;;;1.30;;
10934;SDS011;5520;45.752;4.874;2022-10-03T04:26:07;2.13;;;1.60;;
10934;SDS011;5520;45.752;4.874;2022-10-03T04:28:44;3.77;;;2.03;;
10934;SDS011;5520;45.752;4.874;2022-10-03T04:31:21;2.20;;;1.17;;
10934;SDS011;5520;45.752;4.874;2022-10-03T04:33:57;2.93;;;1.70;;
10934;SDS011;5520;45.752;4.874;2022-10-03T04:39:16;7.93;;;1.60;;
10934;SDS011;5520;45.752;4.874;2022-10-03T04:41:49;2.20;;;1.10;;
10934;SDS011;5520;45.752;4.874;2022-10-03T04:44:25;3.63;;;1.20;;
10934;SDS011;5520;45.752;4.874;2022-10-03T04:46:56;2.53;;;1.37;;
10934;SDS011;5520;45.752;4.874;2022-10-03T04:49:28;3.87;;;1.50;;
10934;SDS011;5520;45.752;4.874;2022-10-03T04:51:59;1.80;;;1.10;;
10934;SDS011;5520;45.752;4.874;2022-10-03T04:54:32;1.40;;;1.20;;
10934;SDS011;5520;45.752;4.874;2022-10-03T04:57:14;3.50;;;1.10;;
10934;SDS011;5520;45.752;4.874;2022-10-03T04:59:47;2.57;;;1.30;;
10934;SDS011;5520;45.752;4.874;2022-10-03T05:05:22;2.60;;;1.13;;
10934;SDS011;5520;45.752;4.874;2022-10-03T05:07:53;4.57;;;1.60;;
10934;SDS011;5520;45.752;4.874;2022-10-03T05:10:26;1.70;;;1.00;;
10934;SDS011;5520;45.752;4.874;2022-10-03T05:12:59;2.83;;;1.33;;
10934;SDS011;5520;45.752;4.874;2022-10-03T05:15:31;2.53;;;1.20;;
10934;SDS011;5520;45.752;4.874;2022-10-03T05:18:00;1.50;;;0.90;;
10934;SDS011;5520;45.752;4.874;2022-10-03T05:20:34;2.40;;;1.30;;
10934;SDS011;5520;45.752;4.874;2022-10-03T05:23:10;2.67;;;1.20;;
10934;SDS011;5520;45.752;4.874;2022-10-03T05:25:42;4.80;;;1.73;;
10934;SDS011;5520;45.752;4.874;2022-10-03T05:28:16;6.13;;;1.37;;
10934;SDS011;5520;45.752;4.874;2022-10-03T05:30:49;7.33;;;1.43;;
10934;SDS011;5520;45.752;4.874;2022-10-03T05:33:25;4.67;;;1.67;;
10934;SDS011;5520;45.752;4.874;2022-10-03T05:36:01;2.60;;;1.00;;
10934;SDS011;5520;45.752;4.874;2022-10-03T05:38:37;2.27;;;1.37;;
10934;SDS011;5520;45.752;4.874;2022-10-03T05:41:16;1.53;;;1.07;;
10934;SDS011;5520;45.752;4.874;2022-10-03T05:43:54;1.17;;;1.03;;
10934;SDS011;5520;45.752;4.874;2022-10-03T05:52:01;2.33;;;1.30;;
10934;SDS011;5520;45.752;4.874;2022-10-03T06:00:18;4.83;;;1.17;;
10934;SDS011;5520;45.752;4.874;2022-10-03T06:02:52;0.80;;;0.77;;
10934;SDS011;5520;45.752;4.874;2022-10-03T06:05:31;2.33;;;1.17;;
10934;SDS011;5520;45.752;4.874;2022-10-03T06:08:11;2.70;;;1.10;;
10934;SDS011;5520;45.752;4.874;2022-10-03T06:10:48;1.90;;;0.90;;
10934;SDS011;5520;45.752;4.874;2022-10-03T06:13:19;2.73;;;1.00;;
10934;SDS011;5520;45.752;4.874;2022-10-03T06:15:53;1.90;;;0.93;;
10934;SDS011;5520;45.752;4.874;2022-10-03T06:18:32;1.63;;;0.90;;
10934;SDS011;5520;45.752;4.874;2022-10-03T06:23:59;3.60;;;1.37;;
10934;SDS011;5520;45.752;4.874;2022-10-03T06:37:49;1.43;;;0.70;;
10934;SDS011;5520;45.752;4.874;2022-10-03T06:48:59;2.17;;;0.93;;
10934;SDS011;5520;45.752;4.874;2022-10-03T06:51:48;3.40;;;0.90;;
10934;SDS011;5520;45.752;4.874;2022-10-03T06:54:46;1.30;;;0.70;;
10934;SDS011;5520;45.752;4.874;2022-10-03T06:57:21;2.23;;;0.90;;
10934;SDS011;5520;45.752;4.874;2022-10-03T07:05:41;2.00;;;0.90;;
10934;SDS011;5520;45.752;4.874;2022-10-03T07:08:33;2.30;;;1.20;;
10934;SDS011;5520;45.752;4.874;2022-10-03T07:11:04;1.47;;;1.00;;
10934;SDS011;5520;45.752;4.874;2022-10-03T07:13:37;1.53;;;1.00;;
10934;SDS011;5520;45.752;4.874;2022-10-03T07:16:21;1.83;;;0.80;;
10934;SDS011;5520;45.752;4.874;2022-10-03T07:24:35;1.57;;;0.83;;
10934;SDS011;5520;45.752;4.874;2022-10-03T07:27:11;1.97;;;0.73;;
10934;SDS011;5520;45.752;4.874;2022-10-03T07:32:30;0.60;;;0.60;;
10934;SDS011;5520;45.752;4.874;2022-10-03T07:35:14;1.27;;;0.73;;
10934;SDS011;5520;45.752;4.874;2022-10-03T07:38:02;1.47;;;0.80;;
10934;SDS011;5520;45.752;4.874;2022-10-03T07:43:50;2.50;;;0.80;;
10934;SDS011;5520;45.752;4.874;2022-10-03T07:46:27;0.97;;;0.67;;
10934;SDS011;5520;45.752;4.874;2022-10-03T07:49:09;0.40;;;0.40;;
10934;SDS011;5520;45.752;4.874;2022-10-03T07:51:47;2.53;;;0.70;;
10934;SDS011;5520;45.752;4.874;2022-10-03T08:00:08;2.97;;;0.80;;
10934;SDS011;5520;45.752;4.874;2022-10-03T08:05:42;1.60;;;0.50;;
10934;SDS011;5520;45.752;4.874;2022-10-03T08:08:19;1.23;;;0.80;;
10934;SDS011;5520;45.752;4.874;2022-10-03T08:10:55;1.83;;;0.57;;
10934;SDS011;5520;45.752;4.874;2022-10-03T08:13:30;0.60;;;0.50;;
10934;SDS011;5520;45.752;4.874;2022-10-03T08:16:08;3.03;;;0.53;;
10934;SDS011;5520;45.752;4.874;2022-10-03T08:18:46;1.20;;;0.60;;
10934;SDS011;5520;45.752;4.874;2022-10-03T08:21:19;1.07;;;0.50;;
10934;SDS011;5520;45.752;4.874;2022-10-03T08:24:13;1.20;;;0.43;;
10934;SDS011;5520;45.752;4.874;2022-10-03T08:26:56;0.90;;;0.53;;
10934;SDS011;5520;45.752;4.874;2022-10-03T08:29:36;0.50;;;0.40;;
10934;SDS011;5520;45.752;4.874;2022-10-03T08:38:13;0.30;;;0.30;;
10934;SDS011;5520;45.752;4.874;2022-10-03T08:40:58;0.30;;;0.30;;
10934;SDS011;5520;45.752;4.874;2022-10-03T08:49:35;0.90;;;0.50;;
10934;SDS011;5520;45.752;4.874;2022-10-03T08:52:13;0.40;;;0.40;;
10934;SDS011;5520;45.752;4.874;2022-10-03T08:57:52;0.70;;;0.70;;
10934;SDS011;5520;45.752;4.874;2022-10-03T09:00:26;1.30;;;0.50;;
10934;SDS011;5520;45.752;4.874;2022-10-03T09:03:11;0.30;;;0.30;;
10934;SDS011;5520;45.752;4.874;2022-10-03T09:12:04;0.47;;;0.30;;
10934;SDS011;5520;45.752;4.874;2022-10-03T09:14:45;1.57;;;0.40;;
10934;SDS011;5520;45.752;4.874;2022-10-03T09:20:12;0.40;;;0.40;;
10934;SDS011;5520;45.752;4.874;2022-10-03T09:22:47;0.50;;;0.40;;
10934;SDS011;5520;45.752;4.874;2022-10-03T09:25:21;0.30;;;0.30;;
10934;SDS011;5520;45.752;4.874;2022-10-03T09:30:42;0.70;;;0.70;;
10934;SDS011;5520;45.752;4.874;2022-10-03T09:36:29;0.47;;;0.47;;
10934;SDS011;5520;45.752;4.874;2022-10-03T09:39:13;2.53;;;0.60;;
10934;SDS011;5520;45.752;4.874;2022-10-03T09:41:55;0.90;;;0.50;;
10934;SDS011;5520;45.752;4.874;2022-10-03T09:44:43;0.40;;;0.40;;
10934;SDS011;5520;45.752;4.874;2022-10-03T09:53:15;2.20;;;0.63;;
10934;SDS011;5520;45.752;4.874;2022-10-03T09:55:52;0.47;;;0.40;;
10934;SDS011;5520;45.752;4.874;2022-10-03T10:01:15;1.30;;;0.40;;
10934;SDS011;5520;45.752;4.874;2022-10-03T10:04:06;0.60;;;0.60;;
10934;SDS011;5520;45.752;4.874;2022-10-03T10:07:12;0.73;;;0.43;;
10934;SDS011;5520;45.752;4.874;2022-10-03T10:09:51;0.37;;;0.37;;
10934;SDS011;5520;45.752;4.874;2022-10-03T10:12:28;0.30;;;0.30;;
10934;SDS011;5520;45.752;4.874;2022-10-03T10:15:06;0.50;;;0.50;;
10934;SDS011;5520;45.752;4.874;2022-10-03T10:20:46;0.70;;;0.70;;
10934;SDS011;5520;45.752;4.874;2022-10-03T10:23:22;0.77;;;0.60;;
10934;SDS011;5520;45.752;4.874;2022-10-03T10:26:03;0.50;;;0.50;;
10934;SDS011;5520;45.752;4.874;2022-10-03T10:31:36;2.30;;;1.00;;
10934;SDS011;5520;45.752;4.874;2022-10-03T10:34:30;0.77;;;0.37;;
10934;SDS011;5520;45.752;4.874;2022-10-03T10:40:09;0.50;;;0.50;;
10934;SDS011;5520;45.752;4.874;2022-10-03T10:45:38;2.40;;;0.70;;
10934;SDS011;5520;45.752;4.874;2022-10-03T10:56:47;1.37;;;0.80;;
10934;SDS011;5520;45.752;4.874;2022-10-03T10:59:33;1.30;;;0.50;;
10934;SDS011;5520;45.752;4.874;2022-10-03T11:02:34;0.50;;;0.50;;
10934;SDS011;5520;45.752;4.874;2022-10-03T11:05:29;1.30;;;0.50;;
10934;SDS011;5520;45.752;4.874;2022-10-03T11:11:01;0.60;;;0.50;;
10934;SDS011;5520;45.752;4.874;2022-10-03T11:16:46;0.50;;;0.40;;
10934;SDS011;5520;45.752;4.874;2022-10-03T11:19:24;0.80;;;0.60;;
10934;SDS011;5520;45.752;4.874;2022-10-03T11:24:59;0.50;;;0.50;;
10934;SDS011;5520;45.752;4.874;2022-10-03T11:27:47;0.70;;;0.50;;
10934;SDS011;5520;45.752;4.874;2022-10-03T11:30:21;1.30;;;0.43;;
10934;SDS011;5520;45.752;4.874;2022-10-03T11:33:08;0.83;;;0.40;;
10934;SDS011;5520;45.752;4.874;2022-10-03T11:35:51;0.60;;;0.60;;
10934;SDS011;5520;45.752;4.874;2022-10-03T11:38:24;2.13;;;0.67;;
10934;SDS011;5520;45.752;4.874;2022-10-03T11:40:59;0.73;;;0.73;;
10934;SDS011;5520;45.752;4.874;2022-10-03T11:43:39;0.60;;;0.60;;
10934;SDS011;5520;45.752;4.874;2022-10-03T11:46:20;0.80;;;0.50;;
10934;SDS011;5520;45.752;4.874;2022-10-03T11:48:50;0.87;;;0.83;;
10934;SDS011;5520;45.752;4.874;2022-10-03T11:51:34;2.13;;;0.90;;
10934;SDS011;5520;45.752;4.874;2022-10-03T11:54:05;0.93;;;0.80;;
10934;SDS011;5520;45.752;4.874;2022-10-03T11:56:58;0.70;;;0.70;;
10934;SDS011;5520;45.752;4.874;2022-10-03T11:59:35;0.73;;;0.70;;
10934;SDS011;5520;45.752;4.874;2022-10-03T12:02:11;0.63;;;0.63;;
10934;SDS011;5520;45.752;4.874;2022-10-03T12:04:45;3.33;;;0.70;;
10934;SDS011;5520;45.752;4.874;2022-10-03T12:07:17;0.73;;;0.73;;
10934;SDS011;5520;45.752;4.874;2022-10-03T12:10:08;0.70;;;0.70;;
10934;SDS011;5520;45.752;4.874;2022-10-03T12:12:38;1.20;;;0.90;;
10934;SDS011;5520;45.752;4.874;2022-10-03T12:15:16;1.70;;;0.80;;
10934;SDS011;5520;45.752;4.874;2022-10-03T12:17:47;0.60;;;0.60;;
10934;SDS011;5520;45.752;4.874;2022-10-03T12:20:18;0.90;;;0.90;;
10934;SDS011;5520;45.752;4.874;2022-10-03T12:22:50;1.43;;;0.80;;
10934;SDS011;5520;45.752;4.874;2022-10-03T12:25:20;1.50;;;1.40;;
10934;SDS011;5520;45.752;4.874;2022-10-03T12:27:53;0.80;;;0.73;;
10934;SDS011;5520;45.752;4.874;2022-10-03T12:30:23;1.87;;;0.73;;
10934;SDS011;5520;45.752;4.874;2022-10-03T12:33:00;1.23;;;0.60;;
10934;SDS011;5520;45.752;4.874;2022-10-03T12:35:36;1.03;;;0.80;;
10934;SDS011;5520;45.752;4.874;2022-10-03T12:38:20;0.53;;;0.50;;
10934;SDS011;5520;45.752;4.874;2022-10-03T12:40:53;0.80;;;0.70;;
10934;SDS011;5520;45.752;4.874;2022-10-03T12:43:30;0.60;;;0.60;;
10934;SDS011;5520;45.752;4.874;2022-10-03T12:46:01;3.20;;;0.77;;
10934;SDS011;5520;45.752;4.874;2022-10-03T12:48:35;1.00;;;0.70;;
10934;SDS011;5520;45.752;4.874;2022-10-03T12:51:12;1.67;;;1.03;;
10934;SDS011;5520;45.752;4.874;2022-10-03T12:53:47;2.17;;;0.60;;
10934;SDS011;5520;45.752;4.874;2022-10-03T12:56:20;1.57;;;1.00;;
10934;SDS011;5520;45.752;4.874;2022-10-03T12:58:55;0.93;;;0.83;;
10934;SDS011;5520;45.752;4.874;2022-10-03T13:01:31;3.33;;;0.70;;
10934;SDS011;5520;45.752;4.874;2022-10-03T13:04:02;1.23;;;0.67;;
10934;SDS011;5520;45.752;4.874;2022-10-03T13:06:38;1.13;;;0.83;;
10934;SDS011;5520;45.752;4.874;2022-10-03T13:09:34;0.70;;;0.70;;
10934;SDS011;5520;45.752;4.874;2022-10-03T13:12:09;0.93;;;0.63;;
10934;SDS011;5520;45.752;4.874;2022-10-03T13:15:31;0.73;;;0.73;;
10934;SDS011;5520;45.752;4.874;2022-10-03T13:17:34;1.60;;;0.70;;
10934;SDS011;5520;45.752;4.874;2022-10-03T13:20:08;0.70;;;0.70;;
10934;SDS011;5520;45.752;4.874;2022-10-03T13:22:39;1.20;;;0.67;;
10934;SDS011;5520;45.752;4.874;2022-10-03T13:25:13;0.70;;;0.70;;
10934;SDS011;5520;45.752;4.874;2022-10-03T13:27:45;1.20;;;0.80;;
10934;SDS011;5520;45.752;4.874;2022-10-03T13:30:16;4.20;;;1.27;;
10934;SDS011;5520;45.752;4.874;2022-10-03T13:32:46;0.70;;;0.70;;
10934;SDS011;5520;45.752;4.874;2022-10-03T13:35:25;0.80;;;0.80;;
10934;SDS011;5520;45.752;4.874;2022-10-03T13:38:16;2.97;;;0.80;;
10934;SDS011;5520;45.752;4.874;2022-10-03T13:40:48;0.80;;;0.80;;
10934;SDS011;5520;45.752;4.874;2022-10-03T13:43:19;0.60;;;0.60;;
10934;SDS011;5520;45.752;4.874;2022-10-03T13:45:50;1.83;;;0.77;;
10934;SDS011;5520;45.752;4.874;2022-10-03T13:48:23;1.33;;;0.70;;
10934;SDS011;5520;45.752;4.874;2022-10-03T13:50:53;1.63;;;0.80;;
10934;SDS011;5520;45.752;4.874;2022-10-03T13:53:32;2.17;;;0.60;;
10934;SDS011;5520;45.752;4.874;2022-10-03T13:56:04;0.70;;;0.70;;
10934;SDS011;5520;45.752;4.874;2022-10-03T13:58:37;0.70;;;0.70;;
10934;SDS011;5520;45.752;4.874;2022-10-03T14:01:13;1.40;;;0.70;;
10934;SDS011;5520;45.752;4.874;2022-10-03T14:03:51;1.07;;;0.80;;
10934;SDS011;5520;45.752;4.874;2022-10-03T14:06:22;0.83;;;0.67;;
10934;SDS011;5520;45.752;4.874;2022-10-03T14:09:10;0.87;;;0.80;;
10934;SDS011;5520;45.752;4.874;2022-10-03T14:11:46;0.83;;;0.60;;
10934;SDS011;5520;45.752;4.874;2022-10-03T14:14:22;0.60;;;0.60;;
10934;SDS011;5520;45.752;4.874;2022-10-03T14:16:59;2.03;;;0.80;;
10934;SDS011;5520;45.752;4.874;2022-10-03T14:19:32;1.63;;;0.70;;
10934;SDS011;5520;45.752;4.874;2022-10-03T14:24:51;2.23;;;0.77;;
10934;SDS011;5520;45.752;4.874;2022-10-03T14:30:19;1.10;;;0.70;;
10934;SDS011;5520;45.752;4.874;2022-10-03T14:32:53;2.20;;;0.80;;
10934;SDS011;5520;45.752;4.874;2022-10-03T14:35:29;1.17;;;0.80;;
10934;SDS011;5520;45.752;4.874;2022-10-03T14:40:47;1.80;;;1.23;;
10934;SDS011;5520;45.752;4.874;2022-10-03T14:46:08;1.67;;;1.13;;
10934;SDS011;5520;45.752;4.874;2022-10-03T14:48:38;1.43;;;1.10;;
10934;SDS011;5520;45.752;4.874;2022-10-03T14:51:08;1.40;;;1.20;;
10934;SDS011;5520;45.752;4.874;2022-10-03T14:53:39;0.70;;;0.70;;
10934;SDS011;5520;45.752;4.874;2022-10-03T14:56:12;0.80;;;0.80;;
10934;SDS011;5520;45.752;4.874;2022-10-03T14:58:43;3.10;;;0.80;;
10934;SDS011;5520;45.752;4.874;2022-10-03T15:01:14;1.90;;;0.80;;
10934;SDS011;5520;45.752;4.874;2022-10-03T15:03:50;1.33;;;0.77;;
10934;SDS011;5520;45.752;4.874;2022-10-03T15:09:09;0.83;;;0.83;;
10934;SDS011;5520;45.752;4.874;2022-10-03T15:11:44;2.50;;;0.67;;
10934;SDS011;5520;45.752;4.874;2022-10-03T15:14:13;0.87;;;0.70;;
10934;SDS011;5520;45.752;4.874;2022-10-03T15:16:45;1.67;;;0.83;;
10934;SDS011;5520;45.752;4.874;2022-10-03T15:19:16;0.80;;;0.80;;
10934;SDS011;5520;45.752;4.874;2022-10-03T15:21:44;1.03;;;0.93;;
10934;SDS011;5520;45.752;4.874;2022-10-03T15:24:17;0.80;;;0.80;;
10934;SDS011;5520;45.752;4.874;2022-10-03T15:26:51;1.10;;;0.70;;
10934;SDS011;5520;45.752;4.874;2022-10-03T15:29:21;2.23;;;1.00;;
10934;SDS011;5520;45.752;4.874;2022-10-03T15:31:51;5.30;;;1.70;;
10934;SDS011;5520;45.752;4.874;2022-10-03T15:34:22;1.10;;;1.00;;
10934;SDS011;5520;45.752;4.874;2022-10-03T15:36:51;1.47;;;1.33;;
10934;SDS011;5520;45.752;4.874;2022-10-03T15:39:23;1.60;;;0.90;;
10934;SDS011;5520;45.752;4.874;2022-10-03T15:41:53;1.17;;;0.87;;
10934;SDS011;5520;45.752;4.874;2022-10-03T15:44:22;1.57;;;0.87;;
10934;SDS011;5520;45.752;4.874;2022-10-03T15:46:56;0.97;;;0.97;;
10934;SDS011;5520;45.752;4.874;2022-10-03T15:49:27;0.80;;;0.80;;
10934;SDS011;5520;45.752;4.874;2022-10-03T15:51:57;0.93;;;0.90;;
10934;SDS011;5520;45.752;4.874;2022-10-03T15:54:27;3.07;;;0.90;;
10934;SDS011;5520;45.752;4.874;2022-10-03T15:56:58;1.07;;;0.97;;
10934;SDS011;5520;45.752;4.874;2022-10-03T15:59:28;2.73;;;1.00;;
10934;SDS011;5520;45.752;4.874;2022-10-03T16:02:01;4.30;;;1.17;;
10934;SDS011;5520;45.752;4.874;2022-10-03T16:04:31;1.00;;;0.90;;
10934;SDS011;5520;45.752;4.874;2022-10-03T16:07:02;1.57;;;1.00;;
10934;SDS011;5520;45.752;4.874;2022-10-03T16:09:38;1.93;;;1.50;;
10934;SDS011;5520;45.752;4.874;2022-10-03T16:12:26;1.60;;;0.93;;
10934;SDS011;5520;45.752;4.874;2022-10-03T16:15:03;1.30;;;1.20;;
10934;SDS011;5520;45.752;4.874;2022-10-03T16:17:41;2.07;;;0.90;;
10934;SDS011;5520;45.752;4.874;2022-10-03T16:20:13;4.63;;;1.30;;
10934;SDS011;5520;45.752;4.874;2022-10-03T16:22:44;2.93;;;1.20;;
10934;SDS011;5520;45.752;4.874;2022-10-03T16:25:16;16.50;;;3.87;;
10934;SDS011;5520;45.752;4.874;2022-10-03T16:27:45;7.27;;;2.40;;
10934;SDS011;5520;45.752;4.874;2022-10-03T16:30:19;2.53;;;1.73;;
10934;SDS011;5520;45.752;4.874;2022-10-03T16:32:51;3.23;;;2.30;;
10934;SDS011;5520;45.752;4.874;2022-10-03T16:35:26;4.57;;;1.60;;
10934;SDS011;5520;45.752;4.874;2022-10-03T16:37:57;1.83;;;1.13;;
10934;SDS011;5520;45.752;4.874;2022-10-03T16:40:25;3.70;;;1.70;;
10934;SDS011;5520;45.752;4.874;2022-10-03T16:42:54;2.00;;;1.37;;
10934;SDS011;5520;45.752;4.874;2022-10-03T16:45:24;3.10;;;1.03;;
10934;SDS011;5520;45.752;4.874;2022-10-03T16:47:55;1.90;;;1.30;;
10934;SDS011;5520;45.752;4.874;2022-10-03T16:50:42;1.30;;;1.00;;
10934;SDS011;5520;45.752;4.874;2022-10-03T16:53:13;2.27;;;1.70;;
10934;SDS011;5520;45.752;4.874;2022-10-03T16:55:43;2.50;;;1.30;;
10934;SDS011;5520;45.752;4.874;2022-10-03T16:58:14;1.13;;;1.10;;
10934;SDS011;5520;45.752;4.874;2022-10-03T17:00:49;2.60;;;2.40;;
10934;SDS011;5520;45.752;4.874;2022-10-03T17:03:42;1.77;;;1.30;;
10934;SDS011;5520;45.752;4.874;2022-10-03T17:06:13;1.30;;;1.20;;
10934;SDS011;5520;45.752;4.874;2022-10-03T17:08:47;3.93;;;1.17;;
10934;SDS011;5520;45.752;4.874;2022-10-03T17:11:17;1.60;;;1.40;;
10934;SDS011;5520;45.752;4.874;2022-10-03T17:13:47;1.43;;;1.20;;
10934;SDS011;5520;45.752;4.874;2022-10-03T17:16:18;1.40;;;1.30;;
10934;SDS011;5520;45.752;4.874;2022-10-03T17:18:54;1.43;;;1.27;;
10934;SDS011;5520;45.752;4.874;2022-10-03T17:21:24;3.27;;;1.20;;
10934;SDS011;5520;45.752;4.874;2022-10-03T17:23:55;1.30;;;1.20;;
10934;SDS011;5520;45.752;4.874;2022-10-03T17:26:28;2.63;;;1.70;;
10934;SDS011;5520;45.752;4.874;2022-10-03T17:29:01;2.70;;;1.97;;
10934;SDS011;5520;45.752;4.874;2022-10-03T17:31:30;1.50;;;1.37;;
10934;SDS011;5520;45.752;4.874;2022-10-03T17:34:03;2.17;;;1.33;;
10934;SDS011;5520;45.752;4.874;2022-10-03T17:42:14;2.53;;;1.50;;
10934;SDS011;5520;45.752;4.874;2022-10-03T17:44:53;3.27;;;1.70;;
10934;SDS011;5520;45.752;4.874;2022-10-03T17:47:22;1.40;;;1.17;;
10934;SDS011;5520;45.752;4.874;2022-10-03T17:49:56;1.43;;;1.27;;
10934;SDS011;5520;45.752;4.874;2022-10-03T17:52:25;1.60;;;1.33;;
10934;SDS011;5520;45.752;4.874;2022-10-03T17:54:54;1.87;;;1.37;;
10934;SDS011;5520;45.752;4.874;2022-10-03T17:57:24;1.77;;;1.53;;
10934;SDS011;5520;45.752;4.874;2022-10-03T17:59:54;3.17;;;1.83;;
10934;SDS011;5520;45.752;4.874;2022-10-03T18:02:29;1.40;;;1.30;;
10934;SDS011;5520;45.752;4.874;2022-10-03T18:05:02;6.83;;;1.60;;
10934;SDS011;5520;45.752;4.874;2022-10-03T18:07:32;1.30;;;1.20;;
10934;SDS011;5520;45.752;4.874;2022-10-03T18:10:01;2.40;;;1.50;;
10934;SDS011;5520;45.752;4.874;2022-10-03T18:12:31;1.70;;;1.07;;
10934;SDS011;5520;45.752;4.874;2022-10-03T18:15:20;2.77;;;1.30;;
10934;SDS011;5520;45.752;4.874;2022-10-03T18:17:55;3.50;;;1.30;;
10934;SDS011;5520;45.752;4.874;2022-10-03T18:20:31;1.50;;;1.40;;
10934;SDS011;5520;45.752;4.874;2022-10-03T18:23:04;1.43;;;1.13;;
10934;SDS011;5520;45.752;4.874;2022-10-03T18:25:39;2.90;;;1.23;;
10934;SDS011;5520;45.752;4.874;2022-10-03T18:28:46;2.00;;;1.37;;
10934;SDS011;5520;45.752;4.874;2022-10-03T18:31:19;1.50;;;1.40;;
10934;SDS011;5520;45.752;4.874;2022-10-03T18:33:50;2.77;;;1.40;;
10934;SDS011;5520;45.752;4.874;2022-10-03T18:36:22;3.90;;;1.37;;
10934;SDS011;5520;45.752;4.874;2022-10-03T18:38:52;1.23;;;1.20;;
10934;SDS011;5520;45.752;4.874;2022-10-03T18:41:23;1.63;;;1.30;;
10934;SDS011;5520;45.752;4.874;2022-10-03T18:43:52;1.63;;;1.20;;
10934;SDS011;5520;45.752;4.874;2022-10-03T18:46:24;3.33;;;1.60;;
10934;SDS011;5520;45.752;4.874;2022-10-03T18:48:56;1.70;;;1.13;;
10934;SDS011;5520;45.752;4.874;2022-10-03T18:51:48;3.27;;;1.83;;
10934;SDS011;5520;45.752;4.874;2022-10-03T18:54:20;2.47;;;2.23;;
10934;SDS011;5520;45.752;4.874;2022-10-03T18:56:58;6.17;;;4.33;;
10934;SDS011;5520;45.752;4.874;2022-10-03T18:59:32;1.33;;;1.23;;
10934;SDS011;5520;45.752;4.874;2022-10-03T19:02:01;2.70;;;1.33;;
10934;SDS011;5520;45.752;4.874;2022-10-03T19:04:33;1.30;;;1.20;;
10934;SDS011;5520;45.752;4.874;2022-10-03T19:07:09;2.07;;;1.30;;
10934;SDS011;5520;45.752;4.874;2022-10-03T19:09:59;2.03;;;1.20;;
10934;SDS011;5520;45.752;4.874;2022-10-03T19:12:28;1.80;;;1.00;;